sensor_id;sensor_type;location;lat;lon;timestamp;P1;durP1;ratioP1;P2;durP2;ratioP2
66437;SDS011;54537;47.972;11.662;2022-07-30T00:01:47;7.50;;;4.03;;
66437;SDS011;54537;47.972;11.662;2022-07-30T00:04:15;21.10;;;9.57;;
66437;SDS011;54537;47.972;11.662;2022-07-30T00:06:42;9.65;;;3.25;;
66437;SDS011;54537;47.972;11.662;2022-07-30T00:09:08;9.05;;;3.30;;
66437;SDS011;54537;47.972;11.662;2022-07-30T00:11:35;6.35;;;3.03;;
66437;SDS011;54537;47.972;11.662;2022-07-30T00:14:01;5.53;;;2.95;;
66437;SDS011;54537;47.972;11.662;2022-07-30T00:16:27;7.57;;;2.90;;
66437;SDS011;54537;47.972;11.662;2022-07-30T00:18:54;5.40;;;3.03;;
66437;SDS011;54537;47.972;11.662;2022-07-30T00:21:21;6.22;;;3.05;;
66437;SDS011;54537;47.972;11.662;2022-07-30T00:23:48;11.30;;;3.30;;
66437;SDS011;54537;47.972;11.662;2022-07-30T00:26:14;9.98;;;3.35;;
66437;SDS011;54537;47.972;11.662;2022-07-30T00:28:40;5.80;;;3.13;;
66437;SDS011;54537;47.972;11.662;2022-07-30T00:31:06;6.07;;;2.97;;
66437;SDS011;54537;47.972;11.662;2022-07-30T00:33:33;6.25;;;2.95;;
66437;SDS011;54537;47.972;11.662;2022-07-30T00:35:59;5.38;;;2.80;;
66437;SDS011;54537;47.972;11.662;2022-07-30T00:38:27;5.25;;;2.88;;
66437;SDS011;54537;47.972;11.662;2022-07-30T00:40:54;8.95;;;3.20;;
66437;SDS011;54537;47.972;11.662;2022-07-30T00:43:22;8.18;;;2.90;;
66437;SDS011;54537;47.972;11.662;2022-07-30T00:45:48;8.10;;;3.10;;
66437;SDS011;54537;47.972;11.662;2022-07-30T00:48:15;7.32;;;2.70;;
66437;SDS011;54537;47.972;11.662;2022-07-30T00:50:41;8.23;;;3.10;;
66437;SDS011;54537;47.972;11.662;2022-07-30T00:53:08;4.80;;;3.03;;
66437;SDS011;54537;47.972;11.662;2022-07-30T00:55:35;7.15;;;3.30;;
66437;SDS011;54537;47.972;11.662;2022-07-30T00:58:02;5.40;;;2.70;;
66437;SDS011;54537;47.972;11.662;2022-07-30T01:00:28;6.75;;;2.50;;
66437;SDS011;54537;47.972;11.662;2022-07-30T01:02:55;5.53;;;2.85;;
66437;SDS011;54537;47.972;11.662;2022-07-30T01:05:21;4.38;;;2.45;;
66437;SDS011;54537;47.972;11.662;2022-07-30T01:07:47;5.22;;;2.42;;
66437;SDS011;54537;47.972;11.662;2022-07-30T01:10:15;4.80;;;2.60;;
66437;SDS011;54537;47.972;11.662;2022-07-30T01:12:43;5.65;;;2.22;;
66437;SDS011;54537;47.972;11.662;2022-07-30T01:15:10;4.55;;;2.47;;
66437;SDS011;54537;47.972;11.662;2022-07-30T01:17:37;6.40;;;3.50;;
66437;SDS011;54537;47.972;11.662;2022-07-30T01:20:04;6.15;;;3.47;;
66437;SDS011;54537;47.972;11.662;2022-07-30T01:22:32;6.03;;;2.65;;
66437;SDS011;54537;47.972;11.662;2022-07-30T01:25:03;6.78;;;2.38;;
66437;SDS011;54537;47.972;11.662;2022-07-30T01:27:32;5.75;;;2.65;;
66437;SDS011;54537;47.972;11.662;2022-07-30T01:30:01;6.80;;;3.70;;
66437;SDS011;54537;47.972;11.662;2022-07-30T01:32:29;4.32;;;2.58;;
66437;SDS011;54537;47.972;11.662;2022-07-30T01:34:56;6.55;;;2.80;;
66437;SDS011;54537;47.972;11.662;2022-07-30T01:37:23;5.65;;;3.03;;
66437;SDS011;54537;47.972;11.662;2022-07-30T01:39:50;6.07;;;2.85;;
66437;SDS011;54537;47.972;11.662;2022-07-30T01:42:17;5.55;;;2.63;;
66437;SDS011;54537;47.972;11.662;2022-07-30T01:44:45;5.95;;;2.70;;
66437;SDS011;54537;47.972;11.662;2022-07-30T01:49:39;4.93;;;2.50;;
66437;SDS011;54537;47.972;11.662;2022-07-30T01:52:06;5.60;;;2.50;;
66437;SDS011;54537;47.972;11.662;2022-07-30T01:54:33;5.90;;;2.63;;
66437;SDS011;54537;47.972;11.662;2022-07-30T01:57:00;6.15;;;2.85;;
66437;SDS011;54537;47.972;11.662;2022-07-30T01:59:27;5.18;;;2.83;;
66437;SDS011;54537;47.972;11.662;2022-07-30T02:01:56;5.90;;;2.80;;
66437;SDS011;54537;47.972;11.662;2022-07-30T02:04:23;5.10;;;2.55;;
66437;SDS011;54537;47.972;11.662;2022-07-30T02:06:51;4.68;;;2.55;;
66437;SDS011;54537;47.972;11.662;2022-07-30T02:09:21;4.88;;;2.55;;
66437;SDS011;54537;47.972;11.662;2022-07-30T02:11:48;5.78;;;2.75;;
66437;SDS011;54537;47.972;11.662;2022-07-30T02:14:38;4.70;;;2.63;;
66437;SDS011;54537;47.972;11.662;2022-07-30T02:17:08;4.25;;;2.17;;
66437;SDS011;54537;47.972;11.662;2022-07-30T02:19:37;4.30;;;2.40;;
66437;SDS011;54537;47.972;11.662;2022-07-30T02:22:04;5.20;;;2.60;;
66437;SDS011;54537;47.972;11.662;2022-07-30T02:24:31;4.68;;;2.42;;
66437;SDS011;54537;47.972;11.662;2022-07-30T02:27:00;7.55;;;2.28;;
66437;SDS011;54537;47.972;11.662;2022-07-30T02:29:27;3.90;;;2.22;;
66437;SDS011;54537;47.972;11.662;2022-07-30T02:31:54;4.47;;;2.75;;
66437;SDS011;54537;47.972;11.662;2022-07-30T02:34:23;3.85;;;2.10;;
66437;SDS011;54537;47.972;11.662;2022-07-30T02:36:50;4.30;;;2.60;;
66437;SDS011;54537;47.972;11.662;2022-07-30T02:39:17;7.43;;;2.47;;
66437;SDS011;54537;47.972;11.662;2022-07-30T02:41:44;3.85;;;2.45;;
66437;SDS011;54537;47.972;11.662;2022-07-30T02:44:11;4.90;;;1.98;;
66437;SDS011;54537;47.972;11.662;2022-07-30T02:46:37;5.13;;;2.50;;
66437;SDS011;54537;47.972;11.662;2022-07-30T03:03:43;4.90;;;2.53;;
66437;SDS011;54537;47.972;11.662;2022-07-30T03:08:36;8.02;;;2.42;;
66437;SDS011;54537;47.972;11.662;2022-07-30T03:11:02;4.28;;;2.42;;
66437;SDS011;54537;47.972;11.662;2022-07-30T03:13:29;4.53;;;2.75;;
66437;SDS011;54537;47.972;11.662;2022-07-30T03:15:56;4.40;;;2.53;;
66437;SDS011;54537;47.972;11.662;2022-07-30T03:18:23;6.30;;;3.17;;
66437;SDS011;54537;47.972;11.662;2022-07-30T03:20:52;5.65;;;3.40;;
66437;SDS011;54537;47.972;11.662;2022-07-30T03:23:20;6.38;;;3.25;;
66437;SDS011;54537;47.972;11.662;2022-07-30T03:25:49;5.10;;;3.20;;
66437;SDS011;54537;47.972;11.662;2022-07-30T03:28:16;4.95;;;2.70;;
66437;SDS011;54537;47.972;11.662;2022-07-30T03:30:43;6.47;;;3.22;;
66437;SDS011;54537;47.972;11.662;2022-07-30T03:33:10;6.53;;;2.65;;
66437;SDS011;54537;47.972;11.662;2022-07-30T04:36:34;5.43;;;3.20;;
66437;SDS011;54537;47.972;11.662;2022-07-30T04:39:01;5.07;;;3.15;;
66437;SDS011;54537;47.972;11.662;2022-07-30T04:41:27;6.28;;;3.17;;
66437;SDS011;54537;47.972;11.662;2022-07-30T04:43:53;6.35;;;3.30;;
66437;SDS011;54537;47.972;11.662;2022-07-30T04:46:20;7.97;;;3.17;;
66437;SDS011;54537;47.972;11.662;2022-07-30T04:48:46;5.95;;;3.72;;
66437;SDS011;54537;47.972;11.662;2022-07-30T04:51:14;6.60;;;3.05;;
66437;SDS011;54537;47.972;11.662;2022-07-30T04:53:43;6.15;;;3.33;;
66437;SDS011;54537;47.972;11.662;2022-07-30T04:56:10;7.07;;;3.53;;
66437;SDS011;54537;47.972;11.662;2022-07-30T04:58:37;6.38;;;3.20;;
66437;SDS011;54537;47.972;11.662;2022-07-30T05:01:05;4.65;;;3.13;;
66437;SDS011;54537;47.972;11.662;2022-07-30T05:03:32;6.30;;;3.40;;
66437;SDS011;54537;47.972;11.662;2022-07-30T05:05:59;5.63;;;3.20;;
66437;SDS011;54537;47.972;11.662;2022-07-30T05:08:26;6.88;;;3.05;;
66437;SDS011;54537;47.972;11.662;2022-07-30T05:10:54;5.15;;;3.03;;
66437;SDS011;54537;47.972;11.662;2022-07-30T05:13:21;5.05;;;3.08;;
66437;SDS011;54537;47.972;11.662;2022-07-30T05:15:47;7.18;;;3.13;;
66437;SDS011;54537;47.972;11.662;2022-07-30T05:18:13;5.55;;;2.83;;
66437;SDS011;54537;47.972;11.662;2022-07-30T05:20:39;6.75;;;3.15;;
66437;SDS011;54537;47.972;11.662;2022-07-30T05:23:06;5.38;;;2.92;;
66437;SDS011;54537;47.972;11.662;2022-07-30T05:25:32;5.28;;;2.78;;
66437;SDS011;54537;47.972;11.662;2022-07-30T05:28:00;5.57;;;2.92;;
66437;SDS011;54537;47.972;11.662;2022-07-30T05:30:26;6.90;;;2.90;;
66437;SDS011;54537;47.972;11.662;2022-07-30T05:32:53;6.47;;;2.83;;
66437;SDS011;54537;47.972;11.662;2022-07-30T05:35:19;5.63;;;3.13;;
66437;SDS011;54537;47.972;11.662;2022-07-30T05:37:45;5.47;;;2.72;;
66437;SDS011;54537;47.972;11.662;2022-07-30T05:40:11;7.70;;;2.92;;
66437;SDS011;54537;47.972;11.662;2022-07-30T05:42:38;6.93;;;2.58;;
66437;SDS011;54537;47.972;11.662;2022-07-30T05:45:07;7.75;;;2.60;;
66437;SDS011;54537;47.972;11.662;2022-07-30T05:47:33;4.88;;;2.80;;
66437;SDS011;54537;47.972;11.662;2022-07-30T05:49:59;6.90;;;2.78;;
66437;SDS011;54537;47.972;11.662;2022-07-30T05:52:26;8.38;;;3.00;;
66437;SDS011;54537;47.972;11.662;2022-07-30T05:54:52;4.25;;;2.65;;
66437;SDS011;54537;47.972;11.662;2022-07-30T05:57:19;6.60;;;2.92;;
66437;SDS011;54537;47.972;11.662;2022-07-30T05:59:45;5.30;;;2.92;;
66437;SDS011;54537;47.972;11.662;2022-07-30T06:02:13;5.95;;;3.00;;
66437;SDS011;54537;47.972;11.662;2022-07-30T06:04:39;6.38;;;2.75;;
66437;SDS011;54537;47.972;11.662;2022-07-30T06:07:05;5.90;;;3.58;;
66437;SDS011;54537;47.972;11.662;2022-07-30T06:09:32;8.15;;;3.22;;
66437;SDS011;54537;47.972;11.662;2022-07-30T06:11:58;8.00;;;3.10;;
66437;SDS011;54537;47.972;11.662;2022-07-30T06:14:24;5.28;;;2.85;;
66437;SDS011;54537;47.972;11.662;2022-07-30T06:16:51;6.90;;;2.83;;
66437;SDS011;54537;47.972;11.662;2022-07-30T06:19:18;5.85;;;3.13;;
66437;SDS011;54537;47.972;11.662;2022-07-30T06:21:45;5.50;;;3.35;;
66437;SDS011;54537;47.972;11.662;2022-07-30T06:24:11;4.97;;;3.05;;
66437;SDS011;54537;47.972;11.662;2022-07-30T06:26:37;5.07;;;3.17;;
66437;SDS011;54537;47.972;11.662;2022-07-30T06:29:04;6.45;;;3.45;;
66437;SDS011;54537;47.972;11.662;2022-07-30T06:31:30;6.95;;;3.45;;
66437;SDS011;54537;47.972;11.662;2022-07-30T06:33:57;5.70;;;3.20;;
66437;SDS011;54537;47.972;11.662;2022-07-30T06:36:24;5.63;;;3.55;;
66437;SDS011;54537;47.972;11.662;2022-07-30T06:38:51;6.28;;;3.60;;
66437;SDS011;54537;47.972;11.662;2022-07-30T06:41:17;11.48;;;3.88;;
66437;SDS011;54537;47.972;11.662;2022-07-30T06:43:43;5.93;;;3.60;;
66437;SDS011;54537;47.972;11.662;2022-07-30T06:46:09;8.07;;;3.78;;
66437;SDS011;54537;47.972;11.662;2022-07-30T06:48:36;6.00;;;3.22;;
66437;SDS011;54537;47.972;11.662;2022-07-30T06:51:02;5.75;;;3.63;;
66437;SDS011;54537;47.972;11.662;2022-07-30T06:53:30;6.28;;;3.13;;
66437;SDS011;54537;47.972;11.662;2022-07-30T06:55:56;6.07;;;3.58;;
66437;SDS011;54537;47.972;11.662;2022-07-30T06:58:22;5.47;;;3.30;;
66437;SDS011;54537;47.972;11.662;2022-07-30T07:00:49;6.80;;;4.03;;
66437;SDS011;54537;47.972;11.662;2022-07-30T07:03:15;6.50;;;3.47;;
66437;SDS011;54537;47.972;11.662;2022-07-30T07:05:41;5.60;;;3.70;;
66437;SDS011;54537;47.972;11.662;2022-07-30T07:08:08;5.47;;;3.72;;
66437;SDS011;54537;47.972;11.662;2022-07-30T07:10:35;7.20;;;4.00;;
66437;SDS011;54537;47.972;11.662;2022-07-30T07:13:02;6.15;;;3.47;;
66437;SDS011;54537;47.972;11.662;2022-07-30T07:15:28;9.60;;;3.85;;
66437;SDS011;54537;47.972;11.662;2022-07-30T07:17:54;6.65;;;3.70;;
66437;SDS011;54537;47.972;11.662;2022-07-30T07:20:21;8.02;;;3.38;;
66437;SDS011;54537;47.972;11.662;2022-07-30T07:22:47;5.25;;;3.20;;
66437;SDS011;54537;47.972;11.662;2022-07-30T07:25:13;6.57;;;3.65;;
66437;SDS011;54537;47.972;11.662;2022-07-30T07:27:41;4.70;;;3.05;;
66437;SDS011;54537;47.972;11.662;2022-07-30T07:30:08;6.63;;;3.22;;
66437;SDS011;54537;47.972;11.662;2022-07-30T07:32:34;6.40;;;3.10;;
66437;SDS011;54537;47.972;11.662;2022-07-30T07:35:01;5.40;;;3.38;;
66437;SDS011;54537;47.972;11.662;2022-07-30T07:37:27;22.75;;;4.10;;
66437;SDS011;54537;47.972;11.662;2022-07-30T07:39:54;8.07;;;3.50;;
66437;SDS011;54537;47.972;11.662;2022-07-30T07:42:20;5.63;;;3.42;;
66437;SDS011;54537;47.972;11.662;2022-07-30T07:44:48;7.70;;;3.47;;
66437;SDS011;54537;47.972;11.662;2022-07-30T07:47:14;6.15;;;3.60;;
66437;SDS011;54537;47.972;11.662;2022-07-30T07:49:40;9.50;;;3.80;;
66437;SDS011;54537;47.972;11.662;2022-07-30T07:52:07;6.20;;;3.58;;
66437;SDS011;54537;47.972;11.662;2022-07-30T07:54:33;7.03;;;3.60;;
66437;SDS011;54537;47.972;11.662;2022-07-30T07:56:59;6.55;;;3.10;;
66437;SDS011;54537;47.972;11.662;2022-07-30T07:59:27;5.72;;;3.25;;
66437;SDS011;54537;47.972;11.662;2022-07-30T08:01:55;8.10;;;3.75;;
66437;SDS011;54537;47.972;11.662;2022-07-30T08:04:22;6.78;;;3.53;;
66437;SDS011;54537;47.972;11.662;2022-07-30T08:06:48;5.93;;;3.63;;
66437;SDS011;54537;47.972;11.662;2022-07-30T08:09:14;6.78;;;3.60;;
66437;SDS011;54537;47.972;11.662;2022-07-30T08:11:41;6.53;;;3.70;;
66437;SDS011;54537;47.972;11.662;2022-07-30T08:14:07;6.50;;;3.85;;
66437;SDS011;54537;47.972;11.662;2022-07-30T08:16:33;7.40;;;3.53;;
66437;SDS011;54537;47.972;11.662;2022-07-30T08:19:01;7.85;;;3.85;;
66437;SDS011;54537;47.972;11.662;2022-07-30T08:21:28;7.40;;;3.40;;
66437;SDS011;54537;47.972;11.662;2022-07-30T08:23:54;6.03;;;3.50;;
66437;SDS011;54537;47.972;11.662;2022-07-30T08:26:20;8.27;;;4.18;;
66437;SDS011;54537;47.972;11.662;2022-07-30T08:28:47;7.10;;;3.45;;
66437;SDS011;54537;47.972;11.662;2022-07-30T08:31:13;6.78;;;3.22;;
66437;SDS011;54537;47.972;11.662;2022-07-30T08:33:39;5.75;;;3.35;;
66437;SDS011;54537;47.972;11.662;2022-07-30T08:36:07;6.55;;;3.10;;
66437;SDS011;54537;47.972;11.662;2022-07-30T08:38:33;6.45;;;3.28;;
66437;SDS011;54537;47.972;11.662;2022-07-30T08:41:00;5.20;;;3.53;;
66437;SDS011;54537;47.972;11.662;2022-07-30T08:43:26;7.57;;;4.00;;
66437;SDS011;54537;47.972;11.662;2022-07-30T08:45:53;5.30;;;3.13;;
66437;SDS011;54537;47.972;11.662;2022-07-30T08:48:21;5.90;;;3.35;;
66437;SDS011;54537;47.972;11.662;2022-07-30T08:50:47;6.68;;;3.30;;
66437;SDS011;54537;47.972;11.662;2022-07-30T08:53:16;6.32;;;3.13;;
66437;SDS011;54537;47.972;11.662;2022-07-30T08:55:43;7.30;;;3.30;;
66437;SDS011;54537;47.972;11.662;2022-07-30T08:58:10;6.05;;;3.30;;
66437;SDS011;54537;47.972;11.662;2022-07-30T09:00:40;7.97;;;3.42;;
66437;SDS011;54537;47.972;11.662;2022-07-30T09:03:06;7.72;;;3.80;;
66437;SDS011;54537;47.972;11.662;2022-07-30T09:05:32;6.35;;;3.33;;
66437;SDS011;54537;47.972;11.662;2022-07-30T09:07:59;6.03;;;2.85;;
66437;SDS011;54537;47.972;11.662;2022-07-30T09:10:27;7.35;;;2.80;;
66437;SDS011;54537;47.972;11.662;2022-07-30T09:12:53;5.35;;;2.97;;
66437;SDS011;54537;47.972;11.662;2022-07-30T09:15:20;6.78;;;2.83;;
66437;SDS011;54537;47.972;11.662;2022-07-30T09:17:48;6.10;;;2.85;;
66437;SDS011;54537;47.972;11.662;2022-07-30T09:20:15;5.68;;;2.58;;
66437;SDS011;54537;47.972;11.662;2022-07-30T09:22:42;4.50;;;2.40;;
66437;SDS011;54537;47.972;11.662;2022-07-30T09:25:09;4.05;;;2.70;;
66437;SDS011;54537;47.972;11.662;2022-07-30T09:27:43;5.20;;;2.60;;
66437;SDS011;54537;47.972;11.662;2022-07-30T09:30:10;4.55;;;2.72;;
66437;SDS011;54537;47.972;11.662;2022-07-30T09:32:45;5.95;;;2.70;;
66437;SDS011;54537;47.972;11.662;2022-07-30T09:35:12;6.85;;;2.70;;
66437;SDS011;54537;47.972;11.662;2022-07-30T09:37:39;3.65;;;2.40;;
66437;SDS011;54537;47.972;11.662;2022-07-30T09:40:10;4.10;;;2.88;;
66437;SDS011;54537;47.972;11.662;2022-07-30T09:42:36;4.60;;;2.60;;
66437;SDS011;54537;47.972;11.662;2022-07-30T09:45:05;8.13;;;2.20;;
66437;SDS011;54537;47.972;11.662;2022-07-30T09:47:32;3.97;;;2.20;;
66437;SDS011;54537;47.972;11.662;2022-07-30T09:50:02;4.90;;;2.08;;
66437;SDS011;54537;47.972;11.662;2022-07-30T09:52:29;4.93;;;2.55;;
66437;SDS011;54537;47.972;11.662;2022-07-30T09:54:55;8.95;;;2.30;;
66437;SDS011;54537;47.972;11.662;2022-07-30T09:57:22;4.88;;;2.22;;
66437;SDS011;54537;47.972;11.662;2022-07-30T09:59:48;6.95;;;2.13;;
66437;SDS011;54537;47.972;11.662;2022-07-30T10:02:16;3.72;;;2.40;;
66437;SDS011;54537;47.972;11.662;2022-07-30T10:04:42;3.92;;;1.98;;
66437;SDS011;54537;47.972;11.662;2022-07-30T10:07:15;5.28;;;2.15;;
66437;SDS011;54537;47.972;11.662;2022-07-30T10:09:42;7.20;;;2.28;;
66437;SDS011;54537;47.972;11.662;2022-07-30T10:12:09;6.55;;;2.42;;
66437;SDS011;54537;47.972;11.662;2022-07-30T10:14:36;5.32;;;2.03;;
66437;SDS011;54537;47.972;11.662;2022-07-30T10:17:03;4.95;;;2.40;;
66437;SDS011;54537;47.972;11.662;2022-07-30T10:19:32;5.50;;;2.20;;
66437;SDS011;54537;47.972;11.662;2022-07-30T10:21:58;5.80;;;2.10;;
66437;SDS011;54537;47.972;11.662;2022-07-30T10:24:25;5.97;;;2.53;;
66437;SDS011;54537;47.972;11.662;2022-07-30T10:26:52;4.60;;;2.40;;
66437;SDS011;54537;47.972;11.662;2022-07-30T10:29:19;3.45;;;2.22;;
66437;SDS011;54537;47.972;11.662;2022-07-30T10:31:46;4.88;;;2.38;;
66437;SDS011;54537;47.972;11.662;2022-07-30T10:34:13;3.67;;;2.22;;
66437;SDS011;54537;47.972;11.662;2022-07-30T10:36:42;4.72;;;2.00;;
66437;SDS011;54537;47.972;11.662;2022-07-30T10:39:09;3.17;;;2.15;;
66437;SDS011;54537;47.972;11.662;2022-07-30T10:41:40;4.90;;;2.17;;
66437;SDS011;54537;47.972;11.662;2022-07-30T10:46:54;3.65;;;1.92;;
66437;SDS011;54537;47.972;11.662;2022-07-30T10:49:25;4.13;;;1.83;;
66437;SDS011;54537;47.972;11.662;2022-07-30T10:51:52;4.75;;;1.98;;
66437;SDS011;54537;47.972;11.662;2022-07-30T10:54:35;4.47;;;2.10;;
66437;SDS011;54537;47.972;11.662;2022-07-30T10:57:02;3.97;;;2.10;;
66437;SDS011;54537;47.972;11.662;2022-07-30T10:59:29;3.65;;;2.00;;
66437;SDS011;54537;47.972;11.662;2022-07-30T11:02:08;3.42;;;2.15;;
66437;SDS011;54537;47.972;11.662;2022-07-30T11:04:34;4.70;;;2.20;;
66437;SDS011;54537;47.972;11.662;2022-07-30T11:09:47;3.10;;;1.90;;
66437;SDS011;54537;47.972;11.662;2022-07-30T11:12:13;4.15;;;2.17;;
66437;SDS011;54537;47.972;11.662;2022-07-30T11:20:09;3.35;;;1.80;;
66437;SDS011;54537;47.972;11.662;2022-07-30T11:22:36;4.38;;;2.08;;
66437;SDS011;54537;47.972;11.662;2022-07-30T11:25:06;5.70;;;2.30;;
66437;SDS011;54537;47.972;11.662;2022-07-30T11:27:33;3.95;;;1.90;;
66437;SDS011;54537;47.972;11.662;2022-07-30T11:30:00;3.42;;;1.98;;
66437;SDS011;54537;47.972;11.662;2022-07-30T11:32:27;4.13;;;1.95;;
66437;SDS011;54537;47.972;11.662;2022-07-30T11:38:00;6.60;;;2.22;;
66437;SDS011;54537;47.972;11.662;2022-07-30T11:40:29;2.95;;;2.00;;
66437;SDS011;54537;47.972;11.662;2022-07-30T11:43:18;6.95;;;1.83;;
66437;SDS011;54537;47.972;11.662;2022-07-30T11:45:45;3.97;;;1.70;;
66437;SDS011;54537;47.972;11.662;2022-07-30T11:48:12;3.25;;;1.80;;
66437;SDS011;54537;47.972;11.662;2022-07-30T11:50:39;2.47;;;1.83;;
66437;SDS011;54537;47.972;11.662;2022-07-30T11:53:06;5.65;;;1.85;;
66437;SDS011;54537;47.972;11.662;2022-07-30T11:55:37;7.78;;;1.52;;
66437;SDS011;54537;47.972;11.662;2022-07-30T11:58:05;4.70;;;1.70;;
66437;SDS011;54537;47.972;11.662;2022-07-30T12:00:35;4.97;;;1.60;;
66437;SDS011;54537;47.972;11.662;2022-07-30T12:03:06;4.57;;;1.70;;
66437;SDS011;54537;47.972;11.662;2022-07-30T12:05:33;3.95;;;1.60;;
66437;SDS011;54537;47.972;11.662;2022-07-30T12:07:59;3.42;;;1.77;;
66437;SDS011;54537;47.972;11.662;2022-07-30T12:10:25;3.83;;;1.80;;
66437;SDS011;54537;47.972;11.662;2022-07-30T12:12:53;3.75;;;1.80;;
66437;SDS011;54537;47.972;11.662;2022-07-30T12:15:31;2.90;;;1.85;;
66437;SDS011;54537;47.972;11.662;2022-07-30T12:17:58;3.13;;;1.95;;
66437;SDS011;54537;47.972;11.662;2022-07-30T12:20:25;2.72;;;1.70;;
66437;SDS011;54537;47.972;11.662;2022-07-30T12:22:51;4.50;;;1.95;;
66437;SDS011;54537;47.972;11.662;2022-07-30T12:25:18;4.57;;;1.88;;
66437;SDS011;54537;47.972;11.662;2022-07-30T12:27:44;4.05;;;2.10;;
66437;SDS011;54537;47.972;11.662;2022-07-30T12:30:13;3.60;;;2.35;;
66437;SDS011;54537;47.972;11.662;2022-07-30T12:32:39;5.78;;;2.00;;
66437;SDS011;54537;47.972;11.662;2022-07-30T12:35:06;6.00;;;2.10;;
66437;SDS011;54537;47.972;11.662;2022-07-30T12:37:33;3.92;;;2.35;;
66437;SDS011;54537;47.972;11.662;2022-07-30T12:40:09;5.75;;;2.17;;
66437;SDS011;54537;47.972;11.662;2022-07-30T12:42:37;5.70;;;2.40;;
66437;SDS011;54537;47.972;11.662;2022-07-30T12:45:25;7.72;;;2.50;;
66437;SDS011;54537;47.972;11.662;2022-07-30T12:47:51;6.47;;;3.08;;
66437;SDS011;54537;47.972;11.662;2022-07-30T12:50:18;4.78;;;2.80;;
66437;SDS011;54537;47.972;11.662;2022-07-30T12:52:47;5.35;;;2.55;;
66437;SDS011;54537;47.972;11.662;2022-07-30T12:55:13;4.65;;;2.63;;
66437;SDS011;54537;47.972;11.662;2022-07-30T12:57:52;3.67;;;2.38;;
66437;SDS011;54537;47.972;11.662;2022-07-30T13:00:18;7.57;;;2.63;;
66437;SDS011;54537;47.972;11.662;2022-07-30T13:02:46;6.00;;;2.60;;
66437;SDS011;54537;47.972;11.662;2022-07-30T13:05:13;10.25;;;2.70;;
66437;SDS011;54537;47.972;11.662;2022-07-30T13:07:52;5.60;;;2.35;;
66437;SDS011;54537;47.972;11.662;2022-07-30T13:10:19;9.15;;;2.50;;
66437;SDS011;54537;47.972;11.662;2022-07-30T13:12:45;3.22;;;2.10;;
66437;SDS011;54537;47.972;11.662;2022-07-30T13:15:15;4.05;;;2.38;;
66437;SDS011;54537;47.972;11.662;2022-07-30T13:17:42;3.95;;;2.22;;
66437;SDS011;54537;47.972;11.662;2022-07-30T13:20:11;4.80;;;2.00;;
66437;SDS011;54537;47.972;11.662;2022-07-30T13:22:37;3.75;;;2.40;;
66437;SDS011;54537;47.972;11.662;2022-07-30T13:25:04;4.40;;;2.22;;
66437;SDS011;54537;47.972;11.662;2022-07-30T13:27:31;6.47;;;2.05;;
66437;SDS011;54537;47.972;11.662;2022-07-30T13:29:57;4.13;;;2.15;;
66437;SDS011;54537;47.972;11.662;2022-07-30T13:32:23;4.80;;;2.20;;
66437;SDS011;54537;47.972;11.662;2022-07-30T13:34:49;4.28;;;2.10;;
66437;SDS011;54537;47.972;11.662;2022-07-30T13:37:17;4.38;;;2.05;;
66437;SDS011;54537;47.972;11.662;2022-07-30T13:39:43;3.58;;;2.10;;
66437;SDS011;54537;47.972;11.662;2022-07-30T13:42:10;4.85;;;2.20;;
66437;SDS011;54537;47.972;11.662;2022-07-30T13:44:36;3.88;;;2.15;;
66437;SDS011;54537;47.972;11.662;2022-07-30T13:47:02;3.63;;;2.20;;
66437;SDS011;54537;47.972;11.662;2022-07-30T13:49:32;7.05;;;2.30;;
66437;SDS011;54537;47.972;11.662;2022-07-30T13:51:59;3.88;;;2.15;;
66437;SDS011;54537;47.972;11.662;2022-07-30T13:54:26;4.50;;;2.20;;
66437;SDS011;54537;47.972;11.662;2022-07-30T13:56:54;3.15;;;1.90;;
66437;SDS011;54537;47.972;11.662;2022-07-30T13:59:20;4.40;;;2.10;;
66437;SDS011;54537;47.972;11.662;2022-07-30T14:01:47;2.47;;;1.85;;
66437;SDS011;54537;47.972;11.662;2022-07-30T14:04:13;3.70;;;2.20;;
66437;SDS011;54537;47.972;11.662;2022-07-30T14:06:39;4.25;;;2.00;;
66437;SDS011;54537;47.972;11.662;2022-07-30T14:09:06;5.63;;;2.17;;
66437;SDS011;54537;47.972;11.662;2022-07-30T14:11:33;3.88;;;1.83;;
66437;SDS011;54537;47.972;11.662;2022-07-30T14:14:00;3.97;;;1.90;;
66437;SDS011;54537;47.972;11.662;2022-07-30T14:16:26;3.40;;;1.98;;
66437;SDS011;54537;47.972;11.662;2022-07-30T14:18:52;6.38;;;2.03;;
66437;SDS011;54537;47.972;11.662;2022-07-30T14:21:19;9.02;;;2.10;;
66437;SDS011;54537;47.972;11.662;2022-07-30T14:23:45;4.32;;;2.25;;
66437;SDS011;54537;47.972;11.662;2022-07-30T14:26:12;3.20;;;1.80;;
66437;SDS011;54537;47.972;11.662;2022-07-30T14:28:40;3.17;;;2.03;;
66437;SDS011;54537;47.972;11.662;2022-07-30T14:31:06;7.13;;;1.83;;
66437;SDS011;54537;47.972;11.662;2022-07-30T14:33:32;3.95;;;2.15;;
66437;SDS011;54537;47.972;11.662;2022-07-30T14:35:59;6.00;;;2.05;;
66437;SDS011;54537;47.972;11.662;2022-07-30T14:38:25;3.45;;;1.90;;
66437;SDS011;54537;47.972;11.662;2022-07-30T14:40:51;7.35;;;2.45;;
66437;SDS011;54537;47.972;11.662;2022-07-30T14:43:18;7.53;;;2.30;;
66437;SDS011;54537;47.972;11.662;2022-07-30T14:45:45;4.55;;;2.30;;
66437;SDS011;54537;47.972;11.662;2022-07-30T14:48:14;5.00;;;2.22;;
66437;SDS011;54537;47.972;11.662;2022-07-30T14:50:40;4.45;;;2.10;;
66437;SDS011;54537;47.972;11.662;2022-07-30T14:53:07;5.70;;;1.95;;
66437;SDS011;54537;47.972;11.662;2022-07-30T14:55:33;3.65;;;2.05;;
66437;SDS011;54537;47.972;11.662;2022-07-30T14:57:59;4.38;;;1.90;;
66437;SDS011;54537;47.972;11.662;2022-07-30T15:00:26;3.58;;;1.90;;
66437;SDS011;54537;47.972;11.662;2022-07-30T15:02:53;3.53;;;2.17;;
66437;SDS011;54537;47.972;11.662;2022-07-30T15:05:19;4.30;;;2.20;;
66437;SDS011;54537;47.972;11.662;2022-07-30T15:07:46;4.07;;;2.03;;
66437;SDS011;54537;47.972;11.662;2022-07-30T15:10:12;3.90;;;1.90;;
66437;SDS011;54537;47.972;11.662;2022-07-30T15:12:39;6.60;;;2.20;;
66437;SDS011;54537;47.972;11.662;2022-07-30T15:15:06;4.00;;;2.13;;
66437;SDS011;54537;47.972;11.662;2022-07-30T15:17:32;4.28;;;2.28;;
66437;SDS011;54537;47.972;11.662;2022-07-30T15:20:00;2.45;;;1.88;;
66437;SDS011;54537;47.972;11.662;2022-07-30T15:22:26;2.95;;;1.90;;
66437;SDS011;54537;47.972;11.662;2022-07-30T15:24:53;5.22;;;2.00;;
66437;SDS011;54537;47.972;11.662;2022-07-30T15:27:19;2.97;;;2.30;;
66437;SDS011;54537;47.972;11.662;2022-07-30T15:29:45;3.35;;;2.17;;
66437;SDS011;54537;47.972;11.662;2022-07-30T15:32:12;2.25;;;1.83;;
66437;SDS011;54537;47.972;11.662;2022-07-30T15:34:38;4.78;;;2.30;;
66437;SDS011;54537;47.972;11.662;2022-07-30T15:37:05;4.32;;;2.38;;
66437;SDS011;54537;47.972;11.662;2022-07-30T15:39:32;4.45;;;2.00;;
66437;SDS011;54537;47.972;11.662;2022-07-30T15:41:59;2.40;;;2.10;;
66437;SDS011;54537;47.972;11.662;2022-07-30T15:44:26;4.88;;;2.25;;
66437;SDS011;54537;47.972;11.662;2022-07-30T15:46:52;3.00;;;1.88;;
66437;SDS011;54537;47.972;11.662;2022-07-30T15:49:18;4.38;;;2.28;;
66437;SDS011;54537;47.972;11.662;2022-07-30T15:51:45;4.07;;;2.10;;
66437;SDS011;54537;47.972;11.662;2022-07-30T15:54:14;4.53;;;1.95;;
66437;SDS011;54537;47.972;11.662;2022-07-30T15:56:40;4.00;;;1.95;;
66437;SDS011;54537;47.972;11.662;2022-07-30T15:59:06;3.58;;;2.20;;
66437;SDS011;54537;47.972;11.662;2022-07-30T16:01:33;3.15;;;2.05;;
66437;SDS011;54537;47.972;11.662;2022-07-30T16:03:59;3.42;;;2.17;;
66437;SDS011;54537;47.972;11.662;2022-07-30T16:06:25;4.53;;;2.00;;
66437;SDS011;54537;47.972;11.662;2022-07-30T16:08:51;3.70;;;1.88;;